KTLH/TLH METAR and TAF weather

Enter ICAO airport designator
Station Type Date Time Source
KTLH METAR 2019/06/26 17:53 UTC NOAA

KTLH 261753Z 36007KT 10SM SCT050 BKN250 34/22 A3013 RMK AO2 SLP201 T03440217 10344 20256 58010


Station Type Date Time Source
KTLH Decoded METAR 2019/06/26 17:53 UTC NOAA

TALLAHASSEE REGIONAL AIRPORT , FL, United States (KTLH) 30-24N 84-21W 16M
Jun 26, 2019 - 01:53 PM EDT / 2019.06.26 1753 UTC
Wind: from the N (360 degrees) at 8 MPH (7 KT):0
Visibility: 10 mile(s):0
Sky conditions: mostly cloudy
Temperature: 93.9 F (34.4 C)
Heat index: 100.8 F (38.2 C):1
Dew Point: 71.1 F (21.7 C)
Relative Humidity: 47%
Pressure (altimeter): 30.13 in. Hg (1020 hPa)
Pressure tendency: 0.03 inches (1.0 hPa) lower than three hours ago
ob: KTLH 261753Z 36007KT 10SM SCT050 BKN250 34/22 A3013 RMK AO2 SLP201 T03440217 10344 20256 58010
cycle: 18

Station Type Date Time Source
KTLH TAF 2019/06/26 18:22 UTC NOAA

TAF KTLH 261720Z 2618/2718 01010G15KT P6SM SCT040 BKN250
FM270000 VRB04KT P6SM SCT250

Example: see airport list